Aviation Digital Data Service (ADDS)

Output produced by METARs form (0912 UTC 30 July 2016)
found at http://www.aviationweather.gov/adds/metars/
 
KESN 300856Z AUTO 00000KT 10SM CLR 24/24 A2997 RMK AO2 T02410241